sensor_id;sensor_type;location;lat;lon;timestamp;P1;durP1;ratioP1;P2;durP2;ratioP2
20067;SDS011;10194;50.824;7.134;2023-07-31T00:00:31;141.13;;;79.83;;
20067;SDS011;10194;50.824;7.134;2023-07-31T00:02:57;135.97;;;77.90;;
20067;SDS011;10194;50.824;7.134;2023-07-31T00:05:23;131.17;;;74.20;;
20067;SDS011;10194;50.824;7.134;2023-07-31T00:07:49;129.00;;;71.77;;
20067;SDS011;10194;50.824;7.134;2023-07-31T00:10:14;135.53;;;77.57;;
20067;SDS011;10194;50.824;7.134;2023-07-31T00:12:42;141.37;;;80.47;;
20067;SDS011;10194;50.824;7.134;2023-07-31T00:15:10;130.47;;;72.50;;
20067;SDS011;10194;50.824;7.134;2023-07-31T00:17:43;134.07;;;75.70;;
20067;SDS011;10194;50.824;7.134;2023-07-31T00:20:08;130.83;;;73.50;;
20067;SDS011;10194;50.824;7.134;2023-07-31T00:22:38;136.30;;;77.03;;
20067;SDS011;10194;50.824;7.134;2023-07-31T00:25:04;126.90;;;70.07;;
20067;SDS011;10194;50.824;7.134;2023-07-31T00:27:31;125.67;;;69.10;;
20067;SDS011;10194;50.824;7.134;2023-07-31T00:29:57;141.60;;;78.80;;
20067;SDS011;10194;50.824;7.134;2023-07-31T00:32:23;140.43;;;78.60;;
20067;SDS011;10194;50.824;7.134;2023-07-31T00:34:49;139.00;;;78.03;;
20067;SDS011;10194;50.824;7.134;2023-07-31T00:37:18;134.13;;;75.17;;
20067;SDS011;10194;50.824;7.134;2023-07-31T00:39:44;134.53;;;76.43;;
20067;SDS011;10194;50.824;7.134;2023-07-31T00:42:09;126.10;;;70.00;;
20067;SDS011;10194;50.824;7.134;2023-07-31T00:44:41;127.90;;;71.33;;
20067;SDS011;10194;50.824;7.134;2023-07-31T00:47:07;131.33;;;74.03;;
20067;SDS011;10194;50.824;7.134;2023-07-31T00:49:33;137.67;;;77.60;;
20067;SDS011;10194;50.824;7.134;2023-07-31T00:51:59;140.83;;;78.10;;
20067;SDS011;10194;50.824;7.134;2023-07-31T00:54:25;142.07;;;79.00;;
20067;SDS011;10194;50.824;7.134;2023-07-31T00:56:51;137.07;;;78.93;;
20067;SDS011;10194;50.824;7.134;2023-07-31T00:59:19;140.80;;;82.07;;
20067;SDS011;10194;50.824;7.134;2023-07-31T01:01:45;141.17;;;79.37;;
20067;SDS011;10194;50.824;7.134;2023-07-31T01:04:11;131.37;;;73.40;;
20067;SDS011;10194;50.824;7.134;2023-07-31T01:09:49;135.10;;;76.50;;
20067;SDS011;10194;50.824;7.134;2023-07-31T01:12:29;129.93;;;73.13;;
20067;SDS011;10194;50.824;7.134;2023-07-31T01:17:35;139.77;;;78.23;;
20067;SDS011;10194;50.824;7.134;2023-07-31T01:20:08;125.83;;;70.53;;
20067;SDS011;10194;50.824;7.134;2023-07-31T01:28:25;141.83;;;81.97;;
20067;SDS011;10194;50.824;7.134;2023-07-31T01:31:06;143.03;;;82.20;;
20067;SDS011;10194;50.824;7.134;2023-07-31T01:33:36;134.97;;;77.70;;
20067;SDS011;10194;50.824;7.134;2023-07-31T01:36:02;124.70;;;70.47;;
20067;SDS011;10194;50.824;7.134;2023-07-31T01:38:29;129.53;;;73.03;;
20067;SDS011;10194;50.824;7.134;2023-07-31T01:40:55;140.90;;;81.50;;
20067;SDS011;10194;50.824;7.134;2023-07-31T01:43:20;141.33;;;80.93;;
20067;SDS011;10194;50.824;7.134;2023-07-31T01:45:46;135.80;;;76.93;;
20067;SDS011;10194;50.824;7.134;2023-07-31T01:48:12;130.50;;;75.63;;
20067;SDS011;10194;50.824;7.134;2023-07-31T01:50:38;142.50;;;81.57;;
20067;SDS011;10194;50.824;7.134;2023-07-31T01:53:03;136.37;;;78.50;;
20067;SDS011;10194;50.824;7.134;2023-07-31T01:55:29;131.37;;;75.10;;
20067;SDS011;10194;50.824;7.134;2023-07-31T01:57:55;133.73;;;77.37;;
20067;SDS011;10194;50.824;7.134;2023-07-31T02:00:21;139.57;;;82.17;;
20067;SDS011;10194;50.824;7.134;2023-07-31T02:02:46;128.87;;;71.50;;
20067;SDS011;10194;50.824;7.134;2023-07-31T02:05:12;129.50;;;75.43;;
20067;SDS011;10194;50.824;7.134;2023-07-31T02:07:38;137.20;;;79.37;;
20067;SDS011;10194;50.824;7.134;2023-07-31T02:10:04;125.20;;;70.20;;
20067;SDS011;10194;50.824;7.134;2023-07-31T02:12:30;127.77;;;74.03;;
20067;SDS011;10194;50.824;7.134;2023-07-31T02:14:57;136.70;;;80.57;;
20067;SDS011;10194;50.824;7.134;2023-07-31T02:17:22;125.67;;;69.80;;
20067;SDS011;10194;50.824;7.134;2023-07-31T02:19:48;131.63;;;76.43;;
20067;SDS011;10194;50.824;7.134;2023-07-31T02:22:14;138.57;;;81.80;;
20067;SDS011;10194;50.824;7.134;2023-07-31T02:24:40;138.77;;;81.13;;
20067;SDS011;10194;50.824;7.134;2023-07-31T02:27:05;133.57;;;78.17;;
20067;SDS011;10194;50.824;7.134;2023-07-31T02:29:31;132.20;;;75.93;;
20067;SDS011;10194;50.824;7.134;2023-07-31T02:31:57;139.97;;;79.50;;
20067;SDS011;10194;50.824;7.134;2023-07-31T02:34:23;125.30;;;71.47;;
20067;SDS011;10194;50.824;7.134;2023-07-31T02:36:48;126.93;;;72.20;;
20067;SDS011;10194;50.824;7.134;2023-07-31T02:39:14;139.57;;;80.60;;
20067;SDS011;10194;50.824;7.134;2023-07-31T02:41:40;141.77;;;83.33;;
20067;SDS011;10194;50.824;7.134;2023-07-31T02:44:05;125.83;;;71.93;;
20067;SDS011;10194;50.824;7.134;2023-07-31T02:46:31;130.57;;;75.13;;
20067;SDS011;10194;50.824;7.134;2023-07-31T02:48:57;137.43;;;79.20;;
20067;SDS011;10194;50.824;7.134;2023-07-31T02:51:23;126.83;;;71.13;;
20067;SDS011;10194;50.824;7.134;2023-07-31T02:53:48;138.83;;;82.43;;
20067;SDS011;10194;50.824;7.134;2023-07-31T02:56:14;134.90;;;78.20;;
20067;SDS011;10194;50.824;7.134;2023-07-31T02:58:40;138.13;;;80.97;;
20067;SDS011;10194;50.824;7.134;2023-07-31T03:01:06;136.47;;;79.80;;
20067;SDS011;10194;50.824;7.134;2023-07-31T03:03:32;129.07;;;74.83;;
20067;SDS011;10194;50.824;7.134;2023-07-31T03:05:58;137.20;;;80.83;;
20067;SDS011;10194;50.824;7.134;2023-07-31T03:08:24;126.13;;;71.30;;
20067;SDS011;10194;50.824;7.134;2023-07-31T03:10:50;138.30;;;80.27;;
20067;SDS011;10194;50.824;7.134;2023-07-31T03:13:15;136.47;;;78.77;;
20067;SDS011;10194;50.824;7.134;2023-07-31T03:15:44;138.13;;;80.33;;
20067;SDS011;10194;50.824;7.134;2023-07-31T03:18:10;129.33;;;73.23;;
20067;SDS011;10194;50.824;7.134;2023-07-31T03:20:35;134.37;;;79.57;;
20067;SDS011;10194;50.824;7.134;2023-07-31T03:23:01;140.73;;;82.37;;
20067;SDS011;10194;50.824;7.134;2023-07-31T03:25:27;127.93;;;72.30;;
20067;SDS011;10194;50.824;7.134;2023-07-31T03:27:53;134.47;;;77.13;;
20067;SDS011;10194;50.824;7.134;2023-07-31T03:30:18;136.53;;;79.03;;
20067;SDS011;10194;50.824;7.134;2023-07-31T03:32:44;127.63;;;71.80;;
20067;SDS011;10194;50.824;7.134;2023-07-31T03:35:10;126.40;;;71.20;;
20067;SDS011;10194;50.824;7.134;2023-07-31T03:37:35;136.87;;;78.93;;
20067;SDS011;10194;50.824;7.134;2023-07-31T03:40:01;145.20;;;84.37;;
20067;SDS011;10194;50.824;7.134;2023-07-31T03:42:27;135.93;;;76.97;;
20067;SDS011;10194;50.824;7.134;2023-07-31T03:44:53;145.47;;;83.03;;
20067;SDS011;10194;50.824;7.134;2023-07-31T03:47:19;137.70;;;82.07;;
20067;SDS011;10194;50.824;7.134;2023-07-31T03:49:44;131.23;;;74.27;;
20067;SDS011;10194;50.824;7.134;2023-07-31T03:52:10;135.80;;;75.93;;
20067;SDS011;10194;50.824;7.134;2023-07-31T03:54:36;139.73;;;81.47;;
20067;SDS011;10194;50.824;7.134;2023-07-31T03:57:01;126.90;;;71.20;;
20067;SDS011;10194;50.824;7.134;2023-07-31T03:59:27;130.70;;;73.30;;
20067;SDS011;10194;50.824;7.134;2023-07-31T04:01:53;136.43;;;78.00;;
20067;SDS011;10194;50.824;7.134;2023-07-31T04:04:19;139.63;;;80.80;;
20067;SDS011;10194;50.824;7.134;2023-07-31T04:06:45;129.30;;;72.67;;
20067;SDS011;10194;50.824;7.134;2023-07-31T04:09:11;148.67;;;86.60;;
20067;SDS011;10194;50.824;7.134;2023-07-31T04:11:37;139.10;;;81.63;;
20067;SDS011;10194;50.824;7.134;2023-07-31T04:14:04;138.73;;;81.50;;
20067;SDS011;10194;50.824;7.134;2023-07-31T04:16:29;138.50;;;78.53;;
20067;SDS011;10194;50.824;7.134;2023-07-31T04:18:55;144.07;;;86.27;;
20067;SDS011;10194;50.824;7.134;2023-07-31T04:21:21;129.43;;;73.37;;
20067;SDS011;10194;50.824;7.134;2023-07-31T04:23:47;135.50;;;78.73;;
20067;SDS011;10194;50.824;7.134;2023-07-31T04:26:12;142.00;;;83.43;;
20067;SDS011;10194;50.824;7.134;2023-07-31T04:28:38;139.33;;;83.23;;
20067;SDS011;10194;50.824;7.134;2023-07-31T04:31:04;126.40;;;71.83;;
20067;SDS011;10194;50.824;7.134;2023-07-31T04:33:30;141.03;;;82.60;;
20067;SDS011;10194;50.824;7.134;2023-07-31T04:35:55;145.83;;;88.23;;
20067;SDS011;10194;50.824;7.134;2023-07-31T04:38:21;126.73;;;72.37;;
20067;SDS011;10194;50.824;7.134;2023-07-31T04:40:48;136.03;;;77.87;;
20067;SDS011;10194;50.824;7.134;2023-07-31T04:43:14;142.80;;;85.17;;
20067;SDS011;10194;50.824;7.134;2023-07-31T04:45:41;143.00;;;86.57;;
20067;SDS011;10194;50.824;7.134;2023-07-31T04:48:11;138.07;;;80.67;;
20067;SDS011;10194;50.824;7.134;2023-07-31T04:50:37;141.40;;;83.70;;
20067;SDS011;10194;50.824;7.134;2023-07-31T04:53:03;138.97;;;81.27;;
20067;SDS011;10194;50.824;7.134;2023-07-31T04:55:29;137.73;;;79.10;;
20067;SDS011;10194;50.824;7.134;2023-07-31T04:57:54;142.40;;;84.27;;
20067;SDS011;10194;50.824;7.134;2023-07-31T05:00:20;141.63;;;83.70;;
20067;SDS011;10194;50.824;7.134;2023-07-31T05:02:46;143.33;;;82.57;;
20067;SDS011;10194;50.824;7.134;2023-07-31T05:05:11;133.20;;;79.23;;
20067;SDS011;10194;50.824;7.134;2023-07-31T05:07:37;144.70;;;88.20;;
20067;SDS011;10194;50.824;7.134;2023-07-31T05:10:03;132.77;;;73.70;;
20067;SDS011;10194;50.824;7.134;2023-07-31T05:12:29;137.30;;;79.70;;
20067;SDS011;10194;50.824;7.134;2023-07-31T05:14:55;139.80;;;81.33;;
20067;SDS011;10194;50.824;7.134;2023-07-31T05:17:21;142.40;;;86.43;;
20067;SDS011;10194;50.824;7.134;2023-07-31T05:19:46;143.93;;;86.87;;
20067;SDS011;10194;50.824;7.134;2023-07-31T05:22:12;134.07;;;79.07;;
20067;SDS011;10194;50.824;7.134;2023-07-31T05:24:38;145.60;;;85.87;;
20067;SDS011;10194;50.824;7.134;2023-07-31T05:27:04;139.23;;;83.33;;
20067;SDS011;10194;50.824;7.134;2023-07-31T05:29:30;132.00;;;75.63;;
20067;SDS011;10194;50.824;7.134;2023-07-31T05:31:56;139.47;;;81.90;;
20067;SDS011;10194;50.824;7.134;2023-07-31T05:34:21;126.70;;;72.27;;
20067;SDS011;10194;50.824;7.134;2023-07-31T05:36:47;143.10;;;86.30;;
20067;SDS011;10194;50.824;7.134;2023-07-31T05:39:13;143.00;;;85.73;;
20067;SDS011;10194;50.824;7.134;2023-07-31T05:41:38;143.93;;;85.53;;
20067;SDS011;10194;50.824;7.134;2023-07-31T05:44:04;129.30;;;73.70;;
20067;SDS011;10194;50.824;7.134;2023-07-31T05:46:30;144.13;;;85.70;;
20067;SDS011;10194;50.824;7.134;2023-07-31T05:48:58;145.03;;;86.37;;
20067;SDS011;10194;50.824;7.134;2023-07-31T05:51:25;138.33;;;83.63;;
20067;SDS011;10194;50.824;7.134;2023-07-31T05:53:52;135.90;;;81.77;;
20067;SDS011;10194;50.824;7.134;2023-07-31T05:56:18;138.40;;;84.37;;
20067;SDS011;10194;50.824;7.134;2023-07-31T05:58:45;128.13;;;74.20;;
20067;SDS011;10194;50.824;7.134;2023-07-31T06:01:10;139.50;;;84.53;;
20067;SDS011;10194;50.824;7.134;2023-07-31T06:03:36;138.53;;;83.10;;
20067;SDS011;10194;50.824;7.134;2023-07-31T06:06:02;135.77;;;80.67;;
20067;SDS011;10194;50.824;7.134;2023-07-31T06:08:28;143.10;;;88.07;;
20067;SDS011;10194;50.824;7.134;2023-07-31T06:10:53;143.37;;;87.73;;
20067;SDS011;10194;50.824;7.134;2023-07-31T06:13:19;144.07;;;86.90;;
20067;SDS011;10194;50.824;7.134;2023-07-31T06:15:45;137.80;;;80.13;;
20067;SDS011;10194;50.824;7.134;2023-07-31T06:18:11;145.83;;;88.87;;
20067;SDS011;10194;50.824;7.134;2023-07-31T06:20:40;141.20;;;83.73;;
20067;SDS011;10194;50.824;7.134;2023-07-31T06:23:07;143.33;;;88.10;;
20067;SDS011;10194;50.824;7.134;2023-07-31T06:25:33;136.37;;;78.93;;
20067;SDS011;10194;50.824;7.134;2023-07-31T06:27:58;140.07;;;84.73;;
20067;SDS011;10194;50.824;7.134;2023-07-31T06:30:24;138.73;;;80.03;;
20067;SDS011;10194;50.824;7.134;2023-07-31T06:32:50;143.50;;;86.73;;
20067;SDS011;10194;50.824;7.134;2023-07-31T06:35:16;141.47;;;85.13;;
20067;SDS011;10194;50.824;7.134;2023-07-31T06:37:41;143.43;;;85.20;;
20067;SDS011;10194;50.824;7.134;2023-07-31T06:40:09;137.70;;;78.77;;
20067;SDS011;10194;50.824;7.134;2023-07-31T06:42:35;146.30;;;86.97;;
20067;SDS011;10194;50.824;7.134;2023-07-31T06:45:02;140.17;;;84.90;;
20067;SDS011;10194;50.824;7.134;2023-07-31T06:47:28;143.00;;;83.10;;
20067;SDS011;10194;50.824;7.134;2023-07-31T06:49:53;138.77;;;81.60;;
20067;SDS011;10194;50.824;7.134;2023-07-31T06:52:21;144.17;;;84.50;;
20067;SDS011;10194;50.824;7.134;2023-07-31T06:57:47;141.50;;;82.80;;
20067;SDS011;10194;50.824;7.134;2023-07-31T07:00:15;134.70;;;78.83;;
20067;SDS011;10194;50.824;7.134;2023-07-31T07:02:42;140.50;;;82.97;;
20067;SDS011;10194;50.824;7.134;2023-07-31T07:05:15;135.53;;;80.17;;
20067;SDS011;10194;50.824;7.134;2023-07-31T07:07:42;144.40;;;86.50;;
20067;SDS011;10194;50.824;7.134;2023-07-31T07:10:08;139.50;;;78.43;;
20067;SDS011;10194;50.824;7.134;2023-07-31T07:12:35;143.53;;;85.23;;
20067;SDS011;10194;50.824;7.134;2023-07-31T07:15:01;148.13;;;87.70;;
20067;SDS011;10194;50.824;7.134;2023-07-31T07:17:28;141.10;;;85.90;;
20067;SDS011;10194;50.824;7.134;2023-07-31T07:19:58;148.10;;;91.73;;
20067;SDS011;10194;50.824;7.134;2023-07-31T07:22:25;147.53;;;93.30;;
20067;SDS011;10194;50.824;7.134;2023-07-31T07:24:52;143.23;;;88.57;;
20067;SDS011;10194;50.824;7.134;2023-07-31T07:27:18;144.50;;;92.67;;
20067;SDS011;10194;50.824;7.134;2023-07-31T07:29:45;146.13;;;91.13;;
20067;SDS011;10194;50.824;7.134;2023-07-31T07:32:11;141.70;;;89.83;;
20067;SDS011;10194;50.824;7.134;2023-07-31T07:34:37;139.27;;;88.03;;
20067;SDS011;10194;50.824;7.134;2023-07-31T07:37:03;139.03;;;87.37;;
20067;SDS011;10194;50.824;7.134;2023-07-31T07:39:29;139.97;;;89.13;;
20067;SDS011;10194;50.824;7.134;2023-07-31T07:41:55;142.83;;;88.27;;
20067;SDS011;10194;50.824;7.134;2023-07-31T07:44:21;148.67;;;96.07;;
20067;SDS011;10194;50.824;7.134;2023-07-31T07:46:47;147.23;;;91.83;;
20067;SDS011;10194;50.824;7.134;2023-07-31T07:49:12;150.10;;;86.33;;
20067;SDS011;10194;50.824;7.134;2023-07-31T07:51:38;142.47;;;84.27;;
20067;SDS011;10194;50.824;7.134;2023-07-31T07:54:04;141.80;;;86.77;;
20067;SDS011;10194;50.824;7.134;2023-07-31T07:56:30;144.53;;;89.43;;
20067;SDS011;10194;50.824;7.134;2023-07-31T07:58:55;142.93;;;84.17;;
20067;SDS011;10194;50.824;7.134;2023-07-31T08:01:21;145.13;;;88.60;;
20067;SDS011;10194;50.824;7.134;2023-07-31T08:03:47;136.83;;;80.40;;
20067;SDS011;10194;50.824;7.134;2023-07-31T08:06:13;146.50;;;88.77;;
20067;SDS011;10194;50.824;7.134;2023-07-31T08:08:39;145.60;;;87.03;;
20067;SDS011;10194;50.824;7.134;2023-07-31T08:11:05;142.07;;;80.60;;
20067;SDS011;10194;50.824;7.134;2023-07-31T08:13:31;135.47;;;79.07;;
20067;SDS011;10194;50.824;7.134;2023-07-31T08:15:57;143.03;;;84.67;;
20067;SDS011;10194;50.824;7.134;2023-07-31T08:18:23;134.27;;;77.97;;
20067;SDS011;10194;50.824;7.134;2023-07-31T08:20:48;134.63;;;79.83;;
20067;SDS011;10194;50.824;7.134;2023-07-31T08:23:14;142.43;;;85.50;;
20067;SDS011;10194;50.824;7.134;2023-07-31T08:25:40;147.20;;;88.80;;
20067;SDS011;10194;50.824;7.134;2023-07-31T08:28:07;144.17;;;78.83;;
20067;SDS011;10194;50.824;7.134;2023-07-31T08:30:33;138.03;;;80.30;;
20067;SDS011;10194;50.824;7.134;2023-07-31T08:32:59;145.47;;;85.43;;
20067;SDS011;10194;50.824;7.134;2023-07-31T08:35:25;142.30;;;85.30;;
20067;SDS011;10194;50.824;7.134;2023-07-31T08:37:53;136.87;;;78.70;;
20067;SDS011;10194;50.824;7.134;2023-07-31T08:40:19;139.07;;;82.30;;
20067;SDS011;10194;50.824;7.134;2023-07-31T08:42:46;133.17;;;77.47;;
20067;SDS011;10194;50.824;7.134;2023-07-31T08:45:17;135.20;;;79.87;;
20067;SDS011;10194;50.824;7.134;2023-07-31T08:47:46;128.77;;;74.07;;
20067;SDS011;10194;50.824;7.134;2023-07-31T08:50:14;132.80;;;77.67;;
20067;SDS011;10194;50.824;7.134;2023-07-31T08:52:42;142.83;;;85.60;;
20067;SDS011;10194;50.824;7.134;2023-07-31T08:55:08;132.67;;;77.77;;
20067;SDS011;10194;50.824;7.134;2023-07-31T08:57:35;135.40;;;80.43;;
20067;SDS011;10194;50.824;7.134;2023-07-31T09:00:04;129.73;;;75.43;;
20067;SDS011;10194;50.824;7.134;2023-07-31T09:02:37;131.07;;;76.23;;
20067;SDS011;10194;50.824;7.134;2023-07-31T09:05:10;133.43;;;75.17;;
20067;SDS011;10194;50.824;7.134;2023-07-31T09:07:37;141.17;;;82.07;;
20067;SDS011;10194;50.824;7.134;2023-07-31T09:10:04;128.47;;;72.60;;
20067;SDS011;10194;50.824;7.134;2023-07-31T09:12:31;131.20;;;76.27;;
20067;SDS011;10194;50.824;7.134;2023-07-31T09:14:57;138.83;;;81.40;;
20067;SDS011;10194;50.824;7.134;2023-07-31T09:17:30;139.93;;;84.87;;
20067;SDS011;10194;50.824;7.134;2023-07-31T09:19:57;143.73;;;86.97;;
20067;SDS011;10194;50.824;7.134;2023-07-31T09:22:38;135.83;;;81.23;;
20067;SDS011;10194;50.824;7.134;2023-07-31T09:25:23;140.10;;;84.37;;
20067;SDS011;10194;50.824;7.134;2023-07-31T09:30:29;130.70;;;74.80;;
20067;SDS011;10194;50.824;7.134;2023-07-31T09:33:05;139.70;;;84.07;;
20067;SDS011;10194;50.824;7.134;2023-07-31T09:35:33;129.73;;;76.27;;
20067;SDS011;10194;50.824;7.134;2023-07-31T09:38:02;141.93;;;84.47;;
20067;SDS011;10194;50.824;7.134;2023-07-31T09:42:59;144.67;;;85.17;;
20067;SDS011;10194;50.824;7.134;2023-07-31T09:45:34;142.07;;;84.83;;
20067;SDS011;10194;50.824;7.134;2023-07-31T09:48:01;143.23;;;84.33;;
20067;SDS011;10194;50.824;7.134;2023-07-31T09:50:28;128.20;;;73.10;;
20067;SDS011;10194;50.824;7.134;2023-07-31T09:52:55;135.30;;;77.83;;
20067;SDS011;10194;50.824;7.134;2023-07-31T09:55:20;141.63;;;83.23;;
20067;SDS011;10194;50.824;7.134;2023-07-31T09:57:47;128.70;;;73.20;;
20067;SDS011;10194;50.824;7.134;2023-07-31T10:00:15;134.10;;;77.87;;
20067;SDS011;10194;50.824;7.134;2023-07-31T10:02:46;129.07;;;73.50;;
20067;SDS011;10194;50.824;7.134;2023-07-31T10:05:15;139.80;;;80.60;;
20067;SDS011;10194;50.824;7.134;2023-07-31T10:07:42;141.83;;;83.30;;
20067;SDS011;10194;50.824;7.134;2023-07-31T10:10:19;139.23;;;81.53;;
20067;SDS011;10194;50.824;7.134;2023-07-31T10:12:50;138.20;;;81.53;;
20067;SDS011;10194;50.824;7.134;2023-07-31T10:15:17;140.17;;;80.97;;
20067;SDS011;10194;50.824;7.134;2023-07-31T10:17:46;125.83;;;72.07;;
20067;SDS011;10194;50.824;7.134;2023-07-31T10:20:13;136.40;;;79.60;;
20067;SDS011;10194;50.824;7.134;2023-07-31T10:22:44;129.23;;;73.47;;
20067;SDS011;10194;50.824;7.134;2023-07-31T10:25:13;141.13;;;80.10;;
20067;SDS011;10194;50.824;7.134;2023-07-31T10:27:41;140.00;;;82.97;;
20067;SDS011;10194;50.824;7.134;2023-07-31T10:30:27;140.30;;;80.27;;
20067;SDS011;10194;50.824;7.134;2023-07-31T10:32:55;143.07;;;84.20;;
20067;SDS011;10194;50.824;7.134;2023-07-31T10:35:22;128.73;;;71.90;;
20067;SDS011;10194;50.824;7.134;2023-07-31T10:37:48;131.10;;;74.97;;
20067;SDS011;10194;50.824;7.134;2023-07-31T10:40:18;142.30;;;84.50;;
20067;SDS011;10194;50.824;7.134;2023-07-31T10:42:51;135.87;;;79.27;;
20067;SDS011;10194;50.824;7.134;2023-07-31T10:45:37;148.37;;;88.37;;
20067;SDS011;10194;50.824;7.134;2023-07-31T10:48:13;143.97;;;83.50;;
20067;SDS011;10194;50.824;7.134;2023-07-31T10:53:29;135.93;;;80.83;;
20067;SDS011;10194;50.824;7.134;2023-07-31T10:58:34;134.77;;;79.87;;
20067;SDS011;10194;50.824;7.134;2023-07-31T11:01:02;140.67;;;86.57;;
20067;SDS011;10194;50.824;7.134;2023-07-31T11:03:44;133.20;;;79.67;;
20067;SDS011;10194;50.824;7.134;2023-07-31T11:06:17;136.17;;;81.60;;
20067;SDS011;10194;50.824;7.134;2023-07-31T11:08:44;136.87;;;82.23;;
20067;SDS011;10194;50.824;7.134;2023-07-31T11:11:15;139.00;;;85.87;;
20067;SDS011;10194;50.824;7.134;2023-07-31T11:13:50;135.23;;;81.57;;
20067;SDS011;10194;50.824;7.134;2023-07-31T11:16:19;140.17;;;81.93;;
20067;SDS011;10194;50.824;7.134;2023-07-31T11:18:50;136.13;;;80.10;;
20067;SDS011;10194;50.824;7.134;2023-07-31T11:21:22;138.07;;;82.57;;
20067;SDS011;10194;50.824;7.134;2023-07-31T11:23:50;140.20;;;83.13;;
20067;SDS011;10194;50.824;7.134;2023-07-31T11:26:18;141.93;;;85.97;;
20067;SDS011;10194;50.824;7.134;2023-07-31T11:28:46;140.10;;;84.47;;
20067;SDS011;10194;50.824;7.134;2023-07-31T11:31:13;137.30;;;81.40;;
20067;SDS011;10194;50.824;7.134;2023-07-31T11:33:38;139.37;;;84.77;;
20067;SDS011;10194;50.824;7.134;2023-07-31T11:36:04;138.47;;;82.50;;
20067;SDS011;10194;50.824;7.134;2023-07-31T11:38:31;138.50;;;82.70;;
20067;SDS011;10194;50.824;7.134;2023-07-31T11:40:59;135.83;;;81.27;;
20067;SDS011;10194;50.824;7.134;2023-07-31T11:43:33;135.43;;;81.57;;
20067;SDS011;10194;50.824;7.134;2023-07-31T11:46:01;141.80;;;86.83;;
20067;SDS011;10194;50.824;7.134;2023-07-31T11:48:35;141.47;;;86.27;;
20067;SDS011;10194;50.824;7.134;2023-07-31T11:51:04;140.13;;;84.07;;
20067;SDS011;10194;50.824;7.134;2023-07-31T11:53:44;139.90;;;83.33;;
20067;SDS011;10194;50.824;7.134;2023-07-31T11:56:19;149.93;;;88.70;;
20067;SDS011;10194;50.824;7.134;2023-07-31T11:58:48;185.83;;;103.60;;
20067;SDS011;10194;50.824;7.134;2023-07-31T12:01:18;146.30;;;91.67;;
20067;SDS011;10194;50.824;7.134;2023-07-31T12:03:46;145.07;;;91.27;;
20067;SDS011;10194;50.824;7.134;2023-07-31T12:06:13;156.57;;;95.67;;
20067;SDS011;10194;50.824;7.134;2023-07-31T12:08:39;141.67;;;91.43;;
20067;SDS011;10194;50.824;7.134;2023-07-31T12:11:05;146.70;;;93.57;;
20067;SDS011;10194;50.824;7.134;2023-07-31T12:13:36;147.17;;;91.53;;
20067;SDS011;10194;50.824;7.134;2023-07-31T12:16:02;146.97;;;96.77;;
20067;SDS011;10194;50.824;7.134;2023-07-31T12:18:30;145.00;;;94.70;;
20067;SDS011;10194;50.824;7.134;2023-07-31T12:21:05;149.70;;;92.93;;
20067;SDS011;10194;50.824;7.134;2023-07-31T12:23:34;142.50;;;91.67;;
20067;SDS011;10194;50.824;7.134;2023-07-31T12:28:35;148.87;;;91.90;;
20067;SDS011;10194;50.824;7.134;2023-07-31T12:31:08;143.60;;;91.57;;
20067;SDS011;10194;50.824;7.134;2023-07-31T12:33:39;147.73;;;92.63;;
20067;SDS011;10194;50.824;7.134;2023-07-31T12:36:07;142.77;;;90.53;;
20067;SDS011;10194;50.824;7.134;2023-07-31T12:38:39;143.27;;;91.50;;
20067;SDS011;10194;50.824;7.134;2023-07-31T12:41:05;142.47;;;88.97;;
20067;SDS011;10194;50.824;7.134;2023-07-31T12:43:34;143.90;;;90.37;;
20067;SDS011;10194;50.824;7.134;2023-07-31T12:46:02;145.60;;;92.27;;
20067;SDS011;10194;50.824;7.134;2023-07-31T12:48:28;146.17;;;91.73;;
20067;SDS011;10194;50.824;7.134;2023-07-31T12:50:54;142.07;;;89.87;;
20067;SDS011;10194;50.824;7.134;2023-07-31T12:53:20;142.40;;;89.07;;
20067;SDS011;10194;50.824;7.134;2023-07-31T12:55:46;145.57;;;89.97;;
20067;SDS011;10194;50.824;7.134;2023-07-31T12:58:12;144.20;;;90.60;;
20067;SDS011;10194;50.824;7.134;2023-07-31T13:00:37;144.80;;;90.90;;
20067;SDS011;10194;50.824;7.134;2023-07-31T13:03:03;144.00;;;89.73;;
20067;SDS011;10194;50.824;7.134;2023-07-31T13:05:29;149.00;;;90.60;;
20067;SDS011;10194;50.824;7.134;2023-07-31T13:07:55;142.97;;;90.37;;
20067;SDS011;10194;50.824;7.134;2023-07-31T13:10:24;145.97;;;88.50;;
20067;SDS011;10194;50.824;7.134;2023-07-31T13:12:53;149.13;;;92.40;;
20067;SDS011;10194;50.824;7.134;2023-07-31T13:15:20;148.20;;;94.47;;
20067;SDS011;10194;50.824;7.134;2023-07-31T13:17:46;147.20;;;91.77;;
20067;SDS011;10194;50.824;7.134;2023-07-31T13:20:12;150.83;;;94.33;;
20067;SDS011;10194;50.824;7.134;2023-07-31T13:22:38;148.60;;;96.37;;
20067;SDS011;10194;50.824;7.134;2023-07-31T13:25:05;145.50;;;91.33;;
20067;SDS011;10194;50.824;7.134;2023-07-31T13:27:31;157.50;;;106.93;;
20067;SDS011;10194;50.824;7.134;2023-07-31T13:29:58;151.73;;;99.77;;
20067;SDS011;10194;50.824;7.134;2023-07-31T13:32:24;152.87;;;94.80;;
20067;SDS011;10194;50.824;7.134;2023-07-31T13:34:49;148.73;;;95.07;;
20067;SDS011;10194;50.824;7.134;2023-07-31T13:37:15;150.23;;;97.17;;
20067;SDS011;10194;50.824;7.134;2023-07-31T13:39:41;152.40;;;96.90;;
20067;SDS011;10194;50.824;7.134;2023-07-31T13:42:08;147.63;;;93.97;;
20067;SDS011;10194;50.824;7.134;2023-07-31T13:44:37;150.27;;;98.07;;
20067;SDS011;10194;50.824;7.134;2023-07-31T13:47:04;146.67;;;98.07;;
20067;SDS011;10194;50.824;7.134;2023-07-31T13:49:30;146.07;;;93.00;;
20067;SDS011;10194;50.824;7.134;2023-07-31T13:51:56;149.00;;;98.27;;
20067;SDS011;10194;50.824;7.134;2023-07-31T13:54:23;149.63;;;100.10;;
20067;SDS011;10194;50.824;7.134;2023-07-31T13:56:51;149.47;;;96.60;;
20067;SDS011;10194;50.824;7.134;2023-07-31T13:59:17;150.97;;;98.60;;
20067;SDS011;10194;50.824;7.134;2023-07-31T14:01:43;148.43;;;101.00;;
20067;SDS011;10194;50.824;7.134;2023-07-31T14:04:10;148.43;;;98.20;;
20067;SDS011;10194;50.824;7.134;2023-07-31T14:06:36;151.93;;;100.27;;
20067;SDS011;10194;50.824;7.134;2023-07-31T14:09:02;156.03;;;100.53;;
20067;SDS011;10194;50.824;7.134;2023-07-31T14:11:28;151.03;;;98.93;;
20067;SDS011;10194;50.824;7.134;2023-07-31T14:13:55;153.17;;;104.90;;
20067;SDS011;10194;50.824;7.134;2023-07-31T14:16:21;148.80;;;99.03;;
20067;SDS011;10194;50.824;7.134;2023-07-31T14:18:47;150.33;;;98.93;;
20067;SDS011;10194;50.824;7.134;2023-07-31T14:21:13;160.33;;;97.80;;
20067;SDS011;10194;50.824;7.134;2023-07-31T14:23:39;146.03;;;96.87;;
20067;SDS011;10194;50.824;7.134;2023-07-31T14:26:06;145.50;;;94.20;;
20067;SDS011;10194;50.824;7.134;2023-07-31T14:28:32;146.27;;;93.20;;
20067;SDS011;10194;50.824;7.134;2023-07-31T14:30:58;143.70;;;93.37;;
20067;SDS011;10194;50.824;7.134;2023-07-31T14:33:24;146.10;;;93.93;;
20067;SDS011;10194;50.824;7.134;2023-07-31T14:35:49;145.90;;;92.67;;